sensor_id;sensor_type;location;lat;lon;timestamp;pressure;altitude;pressure_sealevel;temperature;humidity
250;BME280;109;19.806;-70.704;2023-04-21T00:00:56;101383.59;;;25.62;64.12
250;BME280;109;19.806;-70.704;2023-04-21T00:03:24;101383.94;;;25.54;63.75
250;BME280;109;19.806;-70.704;2023-04-21T00:05:55;101389.31;;;25.35;64.60
250;BME280;109;19.806;-70.704;2023-04-21T00:08:24;101396.69;;;25.49;64.71
250;BME280;109;19.806;-70.704;2023-04-21T00:10:53;101388.00;;;25.63;64.42
250;BME280;109;19.806;-70.704;2023-04-21T00:13:20;101395.91;;;25.66;64.24
250;BME280;109;19.806;-70.704;2023-04-21T00:15:48;101393.34;;;25.63;63.70
250;BME280;109;19.806;-70.704;2023-04-21T00:18:14;101396.34;;;25.57;64.44
250;BME280;109;19.806;-70.704;2023-04-21T00:20:41;101397.41;;;25.53;64.78
250;BME280;109;19.806;-70.704;2023-04-21T00:23:07;101405.91;;;25.43;64.14
250;BME280;109;19.806;-70.704;2023-04-21T00:25:36;101406.75;;;25.44;64.05
250;BME280;109;19.806;-70.704;2023-04-21T00:28:02;101399.66;;;25.43;63.91
250;BME280;109;19.806;-70.704;2023-04-21T00:30:29;101405.91;;;25.43;63.88
250;BME280;109;19.806;-70.704;2023-04-21T00:32:56;101408.38;;;25.48;64.60
250;BME280;109;19.806;-70.704;2023-04-21T00:35:23;101406.75;;;25.44;64.24
250;BME280;109;19.806;-70.704;2023-04-21T00:37:49;101402.84;;;25.51;64.32
250;BME280;109;19.806;-70.704;2023-04-21T00:40:16;101393.94;;;25.51;64.19
250;BME280;109;19.806;-70.704;2023-04-21T00:42:42;101399.59;;;25.44;63.75
250;BME280;109;19.806;-70.704;2023-04-21T00:45:09;101385.81;;;25.52;63.70
250;BME280;109;19.806;-70.704;2023-04-21T00:47:35;101391.47;;;25.65;63.77
250;BME280;109;19.806;-70.704;2023-04-21T00:50:02;101390.66;;;25.63;63.49
250;BME280;109;19.806;-70.704;2023-04-21T00:52:29;101391.47;;;25.65;63.08
250;BME280;109;19.806;-70.704;2023-04-21T00:55:04;101386.50;;;25.57;61.85
250;BME280;109;19.806;-70.704;2023-04-21T00:57:31;101391.25;;;25.51;61.89
250;BME280;109;19.806;-70.704;2023-04-21T01:00:05;101388.06;;;25.42;61.24
250;BME280;109;19.806;-70.704;2023-04-21T01:02:40;101390.81;;;25.41;61.28
250;BME280;109;19.806;-70.704;2023-04-21T01:05:07;101396.25;;;25.39;61.28
250;BME280;109;19.806;-70.704;2023-04-21T01:07:41;101383.44;;;25.46;60.88
250;BME280;109;19.806;-70.704;2023-04-21T01:10:08;101394.31;;;25.43;61.22
250;BME280;109;19.806;-70.704;2023-04-21T01:12:43;101404.09;;;25.44;61.64
250;BME280;109;19.806;-70.704;2023-04-21T01:15:15;101394.44;;;25.40;61.52
250;BME280;109;19.806;-70.704;2023-04-21T01:17:49;101400.31;;;25.29;61.01
250;BME280;109;19.806;-70.704;2023-04-21T01:20:15;101383.53;;;25.24;60.59
250;BME280;109;19.806;-70.704;2023-04-21T01:22:48;101392.75;;;25.37;61.38
250;BME280;109;19.806;-70.704;2023-04-21T01:25:17;101399.66;;;25.43;60.75
250;BME280;109;19.806;-70.704;2023-04-21T01:27:50;101399.94;;;25.37;60.96
250;BME280;109;19.806;-70.704;2023-04-21T01:30:20;101407.91;;;25.38;61.00
250;BME280;109;19.806;-70.704;2023-04-21T01:32:53;101414.94;;;25.41;61.17
250;BME280;109;19.806;-70.704;2023-04-21T01:35:20;101408.94;;;25.36;61.45
250;BME280;109;19.806;-70.704;2023-04-21T01:38:01;101410.47;;;25.21;61.69
250;BME280;109;19.806;-70.704;2023-04-21T01:40:34;101403.78;;;25.31;61.89
250;BME280;109;19.806;-70.704;2023-04-21T01:43:01;101410.53;;;25.40;61.88
250;BME280;109;19.806;-70.704;2023-04-21T01:45:35;101415.94;;;25.38;62.00
250;BME280;109;19.806;-70.704;2023-04-21T01:48:03;101418.06;;;25.32;61.58
250;BME280;109;19.806;-70.704;2023-04-21T01:50:38;101409.22;;;25.30;61.44
250;BME280;109;19.806;-70.704;2023-04-21T01:53:05;101414.91;;;25.22;62.08
250;BME280;109;19.806;-70.704;2023-04-21T01:55:40;101424.00;;;25.18;62.15
250;BME280;109;19.806;-70.704;2023-04-21T01:58:08;101425.28;;;25.30;62.53
250;BME280;109;19.806;-70.704;2023-04-21T02:00:42;101420.81;;;25.30;62.19
250;BME280;109;19.806;-70.704;2023-04-21T02:03:09;101428.88;;;25.29;62.16
250;BME280;109;19.806;-70.704;2023-04-21T02:05:45;101430.75;;;25.27;62.52
250;BME280;109;19.806;-70.704;2023-04-21T02:08:11;101431.75;;;25.24;62.51
250;BME280;109;19.806;-70.704;2023-04-21T02:10:44;101428.78;;;25.32;62.36
250;BME280;109;19.806;-70.704;2023-04-21T02:13:11;101430.69;;;25.28;62.45
250;BME280;109;19.806;-70.704;2023-04-21T02:15:44;101429.50;;;25.35;62.69
250;BME280;109;19.806;-70.704;2023-04-21T02:18:11;101426.38;;;25.24;62.55
250;BME280;109;19.806;-70.704;2023-04-21T02:20:45;101431.22;;;25.36;63.00
250;BME280;109;19.806;-70.704;2023-04-21T02:23:13;101430.88;;;25.44;62.11
250;BME280;109;19.806;-70.704;2023-04-21T02:25:47;101434.13;;;25.32;62.37
250;BME280;109;19.806;-70.704;2023-04-21T02:28:21;101436.75;;;25.33;62.49
250;BME280;109;19.806;-70.704;2023-04-21T02:30:54;101429.06;;;25.44;63.03
250;BME280;109;19.806;-70.704;2023-04-21T02:33:21;101419.38;;;25.42;62.78
250;BME280;109;19.806;-70.704;2023-04-21T02:35:53;101425.09;;;25.34;63.07
250;BME280;109;19.806;-70.704;2023-04-21T02:38:41;101415.91;;;25.20;63.62
250;BME280;109;19.806;-70.704;2023-04-21T02:41:14;101424.16;;;25.35;63.37
250;BME280;109;19.806;-70.704;2023-04-21T02:43:41;101423.81;;;25.23;63.62
250;BME280;109;19.806;-70.704;2023-04-21T02:46:13;101428.00;;;25.28;63.42
250;BME280;109;19.806;-70.704;2023-04-21T02:48:40;101428.03;;;25.08;63.92
250;BME280;109;19.806;-70.704;2023-04-21T02:51:13;101432.25;;;25.14;64.24
250;BME280;109;19.806;-70.704;2023-04-21T02:53:41;101429.69;;;25.10;64.19
250;BME280;109;19.806;-70.704;2023-04-21T02:56:15;101426.22;;;25.08;63.83
250;BME280;109;19.806;-70.704;2023-04-21T02:58:41;101433.25;;;25.11;63.99
250;BME280;109;19.806;-70.704;2023-04-21T03:01:14;101440.72;;;25.23;64.21
250;BME280;109;19.806;-70.704;2023-04-21T03:03:41;101432.25;;;25.14;64.39
250;BME280;109;19.806;-70.704;2023-04-21T03:06:14;101427.00;;;25.10;64.50
250;BME280;109;19.806;-70.704;2023-04-21T03:08:41;101428.28;;;25.22;64.40
250;BME280;109;19.806;-70.704;2023-04-21T03:11:14;101435.78;;;25.14;64.15
250;BME280;109;19.806;-70.704;2023-04-21T03:13:41;101433.00;;;24.97;64.55
250;BME280;109;19.806;-70.704;2023-04-21T03:16:13;101431.50;;;25.10;64.50
250;BME280;109;19.806;-70.704;2023-04-21T03:18:43;101433.13;;;24.94;64.45
250;BME280;109;19.806;-70.704;2023-04-21T03:21:15;101425.97;;;24.74;65.39
250;BME280;109;19.806;-70.704;2023-04-21T03:23:51;101427.22;;;24.86;65.03
250;BME280;109;19.806;-70.704;2023-04-21T03:26:24;101428.91;;;25.08;65.05
250;BME280;109;19.806;-70.704;2023-04-21T03:28:51;101430.16;;;25.20;64.48
250;BME280;109;19.806;-70.704;2023-04-21T03:31:24;101433.56;;;25.24;64.30
250;BME280;109;19.806;-70.704;2023-04-21T03:33:51;101429.38;;;25.18;64.29
250;BME280;109;19.806;-70.704;2023-04-21T03:36:24;101429.22;;;25.01;64.71
250;BME280;109;19.806;-70.704;2023-04-21T03:39:10;101436.28;;;24.83;64.91
250;BME280;109;19.806;-70.704;2023-04-21T03:41:43;101436.00;;;24.89;64.86
250;BME280;109;19.806;-70.704;2023-04-21T03:44:10;101434.06;;;24.93;64.53
250;BME280;109;19.806;-70.704;2023-04-21T03:46:43;101432.44;;;24.89;64.83
250;BME280;109;19.806;-70.704;2023-04-21T03:49:10;101439.44;;;24.93;64.48
250;BME280;109;19.806;-70.704;2023-04-21T03:51:43;101431.00;;;24.82;64.50
250;BME280;109;19.806;-70.704;2023-04-21T03:54:10;101425.09;;;24.73;64.90
250;BME280;109;19.806;-70.704;2023-04-21T03:56:43;101425.03;;;24.75;64.81
250;BME280;109;19.806;-70.704;2023-04-21T03:59:10;101419.06;;;24.89;64.47
250;BME280;109;19.806;-70.704;2023-04-21T04:01:42;101410.84;;;24.93;64.64
250;BME280;109;19.806;-70.704;2023-04-21T04:04:09;101408.09;;;24.95;64.15
250;BME280;109;19.806;-70.704;2023-04-21T04:06:41;101407.91;;;24.79;64.31
250;BME280;109;19.806;-70.704;2023-04-21T04:09:08;101405.81;;;24.86;63.93
250;BME280;109;19.806;-70.704;2023-04-21T04:11:40;101405.22;;;24.79;64.24
250;BME280;109;19.806;-70.704;2023-04-21T04:14:07;101407.63;;;24.85;63.62
250;BME280;109;19.806;-70.704;2023-04-21T04:16:47;101396.03;;;24.85;63.60
250;BME280;109;19.806;-70.704;2023-04-21T04:19:20;101398.81;;;24.83;63.58
250;BME280;109;19.806;-70.704;2023-04-21T04:21:47;101397.44;;;24.93;63.54
250;BME280;109;19.806;-70.704;2023-04-21T04:24:20;101399.25;;;24.93;63.38
250;BME280;109;19.806;-70.704;2023-04-21T04:26:47;101394.72;;;24.95;63.35
250;BME280;109;19.806;-70.704;2023-04-21T04:29:20;101387.63;;;24.94;63.54
250;BME280;109;19.806;-70.704;2023-04-21T04:31:49;101391.22;;;24.93;63.18
250;BME280;109;19.806;-70.704;2023-04-21T04:34:21;101388.25;;;24.99;63.40
250;BME280;109;19.806;-70.704;2023-04-21T04:36:48;101389.69;;;24.87;62.87
250;BME280;109;19.806;-70.704;2023-04-21T04:39:22;101380.38;;;24.75;63.49
250;BME280;109;19.806;-70.704;2023-04-21T04:42:05;101384.53;;;24.83;63.40
250;BME280;109;19.806;-70.704;2023-04-21T04:44:40;101376.50;;;24.83;63.18
250;BME280;109;19.806;-70.704;2023-04-21T04:47:07;101377.28;;;24.85;63.14
250;BME280;109;19.806;-70.704;2023-04-21T04:49:39;101367.94;;;24.95;62.93
250;BME280;109;19.806;-70.704;2023-04-21T04:52:06;101356.84;;;25.02;62.52
250;BME280;109;19.806;-70.704;2023-04-21T04:54:39;101356.28;;;24.96;62.67
250;BME280;109;19.806;-70.704;2023-04-21T04:57:06;101344.53;;;24.98;62.45
250;BME280;109;19.806;-70.704;2023-04-21T04:59:38;101348.69;;;25.05;62.28
250;BME280;109;19.806;-70.704;2023-04-21T05:02:06;101333.44;;;25.07;61.93
250;BME280;109;19.806;-70.704;2023-04-21T05:04:39;101333.44;;;25.07;62.20
250;BME280;109;19.806;-70.704;2023-04-21T05:07:06;101324.53;;;25.07;61.88
250;BME280;109;19.806;-70.704;2023-04-21T05:09:46;101307.22;;;24.95;61.97
250;BME280;109;19.806;-70.704;2023-04-21T05:12:19;101314.31;;;24.96;61.97
250;BME280;109;19.806;-70.704;2023-04-21T05:14:46;101317.84;;;24.97;61.99
250;BME280;109;19.806;-70.704;2023-04-21T05:17:18;101306.72;;;24.86;61.41
250;BME280;109;19.806;-70.704;2023-04-21T05:19:45;101306.38;;;24.73;61.49
250;BME280;109;19.806;-70.704;2023-04-21T05:22:17;101311.03;;;24.69;61.67
250;BME280;109;19.806;-70.704;2023-04-21T05:24:44;101307.91;;;24.80;61.35
250;BME280;109;19.806;-70.704;2023-04-21T05:27:16;101311.75;;;24.73;61.42
250;BME280;109;19.806;-70.704;2023-04-21T05:29:43;101303.34;;;24.82;61.62
250;BME280;109;19.806;-70.704;2023-04-21T05:32:16;101304.13;;;24.84;61.41
250;BME280;109;19.806;-70.704;2023-04-21T05:34:43;101293.78;;;24.77;61.55
250;BME280;109;19.806;-70.704;2023-04-21T05:37:16;101290.09;;;24.79;61.47
250;BME280;109;19.806;-70.704;2023-04-21T05:40:02;101292.22;;;24.71;61.78
250;BME280;109;19.806;-70.704;2023-04-21T05:42:35;101299.72;;;24.63;61.33
250;BME280;109;19.806;-70.704;2023-04-21T05:45:02;101300.72;;;24.60;61.64
250;BME280;109;19.806;-70.704;2023-04-21T05:47:35;101301.53;;;24.62;61.48
250;BME280;109;19.806;-70.704;2023-04-21T05:50:03;101288.06;;;24.64;61.44
250;BME280;109;19.806;-70.704;2023-04-21T05:52:37;101280.66;;;24.70;61.70
250;BME280;109;19.806;-70.704;2023-04-21T05:55:03;101278.75;;;24.72;61.32
250;BME280;109;19.806;-70.704;2023-04-21T05:57:44;101275.44;;;24.67;61.20
250;BME280;109;19.806;-70.704;2023-04-21T06:00:17;101271.59;;;24.73;61.16
250;BME280;109;19.806;-70.704;2023-04-21T06:02:43;101263.41;;;24.78;60.77
250;BME280;109;19.806;-70.704;2023-04-21T06:05:17;101271.28;;;24.81;61.00
250;BME280;109;19.806;-70.704;2023-04-21T06:07:43;101265.38;;;24.72;60.95
250;BME280;109;19.806;-70.704;2023-04-21T06:10:17;101274.44;;;24.70;60.93
250;BME280;109;19.806;-70.704;2023-04-21T06:12:44;101264.84;;;24.64;60.92
250;BME280;109;19.806;-70.704;2023-04-21T06:15:16;101275.81;;;24.58;60.92
250;BME280;109;19.806;-70.704;2023-04-21T06:17:43;101276.16;;;24.71;60.77
250;BME280;109;19.806;-70.704;2023-04-21T06:20:16;101290.31;;;24.73;60.80
250;BME280;109;19.806;-70.704;2023-04-21T06:22:42;101280.47;;;24.75;60.77
250;BME280;109;19.806;-70.704;2023-04-21T06:25:16;101275.38;;;24.69;60.33
250;BME280;109;19.806;-70.704;2023-04-21T06:27:42;101268.59;;;24.60;60.62
250;BME280;109;19.806;-70.704;2023-04-21T06:30:17;101262.19;;;24.64;60.72
250;BME280;109;19.806;-70.704;2023-04-21T06:32:43;101271.00;;;24.66;60.65
250;BME280;109;19.806;-70.704;2023-04-21T06:35:19;101258.63;;;24.64;60.54
250;BME280;109;19.806;-70.704;2023-04-21T06:37:46;101269.16;;;24.68;60.65
250;BME280;109;19.806;-70.704;2023-04-21T06:40:26;101265.72;;;24.65;60.99
250;BME280;109;19.806;-70.704;2023-04-21T06:43:05;101258.06;;;24.57;61.02
250;BME280;109;19.806;-70.704;2023-04-21T06:45:32;101266.22;;;24.54;60.70
250;BME280;109;19.806;-70.704;2023-04-21T06:48:05;101259.38;;;24.47;61.30
250;BME280;109;19.806;-70.704;2023-04-21T06:50:31;101255.44;;;24.56;61.02
250;BME280;109;19.806;-70.704;2023-04-21T06:53:04;101249.00;;;24.60;60.85
250;BME280;109;19.806;-70.704;2023-04-21T06:55:31;101246.69;;;24.52;60.81
250;BME280;109;19.806;-70.704;2023-04-21T06:58:03;101249.06;;;24.58;60.96
250;BME280;109;19.806;-70.704;2023-04-21T07:00:30;101240.09;;;24.59;60.65
250;BME280;109;19.806;-70.704;2023-04-21T07:03:03;101238.22;;;24.61;61.01
250;BME280;109;19.806;-70.704;2023-04-21T07:05:29;101245.19;;;24.65;60.55
250;BME280;109;19.806;-70.704;2023-04-21T07:08:02;101231.81;;;24.65;60.85
250;BME280;109;19.806;-70.704;2023-04-21T07:10:29;101225.59;;;24.65;60.57
250;BME280;109;19.806;-70.704;2023-04-21T07:13:04;101233.34;;;24.71;60.29
250;BME280;109;19.806;-70.704;2023-04-21T07:15:30;101235.06;;;24.72;60.41
250;BME280;109;19.806;-70.704;2023-04-21T07:18:04;101234.28;;;24.70;60.66
250;BME280;109;19.806;-70.704;2023-04-21T07:20:38;101228.06;;;24.69;60.61
250;BME280;109;19.806;-70.704;2023-04-21T07:23:12;101234.34;;;24.68;60.39
250;BME280;109;19.806;-70.704;2023-04-21T07:25:38;101229.94;;;24.67;60.48
250;BME280;109;19.806;-70.704;2023-04-21T07:28:10;101233.69;;;24.63;60.42
250;BME280;109;19.806;-70.704;2023-04-21T07:30:39;101231.81;;;24.65;59.96
250;BME280;109;19.806;-70.704;2023-04-21T07:33:13;101218.13;;;24.71;60.31
250;BME280;109;19.806;-70.704;2023-04-21T07:35:39;101223.09;;;24.81;59.96
250;BME280;109;19.806;-70.704;2023-04-21T07:38:13;101226.72;;;24.80;60.21
250;BME280;109;19.806;-70.704;2023-04-21T07:40:52;101227.72;;;24.77;60.28
250;BME280;109;19.806;-70.704;2023-04-21T07:43:19;101224.97;;;24.58;60.20
250;BME280;109;19.806;-70.704;2023-04-21T07:45:52;101225.38;;;24.69;60.11
250;BME280;109;19.806;-70.704;2023-04-21T07:48:19;101222.03;;;24.64;60.39
250;BME280;109;19.806;-70.704;2023-04-21T07:50:52;101215.38;;;24.54;60.57
250;BME280;109;19.806;-70.704;2023-04-21T07:53:18;101222.78;;;24.48;60.56
250;BME280;109;19.806;-70.704;2023-04-21T07:55:50;101215.88;;;24.44;60.84
250;BME280;109;19.806;-70.704;2023-04-21T07:58:17;101212.97;;;24.48;60.85
250;BME280;109;19.806;-70.704;2023-04-21T08:00:50;101218.13;;;24.53;60.64
250;BME280;109;19.806;-70.704;2023-04-21T08:03:17;101216.81;;;24.43;60.50
250;BME280;109;19.806;-70.704;2023-04-21T08:05:50;101221.47;;;24.37;60.76
250;BME280;109;19.806;-70.704;2023-04-21T08:08:16;101219.53;;;24.41;60.46
250;BME280;109;19.806;-70.704;2023-04-21T08:10:52;101219.53;;;24.41;60.62
250;BME280;109;19.806;-70.704;2023-04-21T08:13:19;101221.13;;;24.45;60.49
250;BME280;109;19.806;-70.704;2023-04-21T08:15:57;101225.75;;;24.42;60.46
250;BME280;109;19.806;-70.704;2023-04-21T08:18:30;101230.00;;;24.46;60.55
250;BME280;109;19.806;-70.704;2023-04-21T08:21:04;101226.75;;;24.39;60.49
250;BME280;109;19.806;-70.704;2023-04-21T08:23:30;101229.44;;;24.39;60.57
250;BME280;109;19.806;-70.704;2023-04-21T08:26:04;101233.03;;;24.38;60.64
250;BME280;109;19.806;-70.704;2023-04-21T08:28:30;101229.88;;;24.49;60.65
250;BME280;109;19.806;-70.704;2023-04-21T08:31:04;101236.41;;;24.43;60.82
250;BME280;109;19.806;-70.704;2023-04-21T08:33:30;101235.97;;;24.52;60.87
250;BME280;109;19.806;-70.704;2023-04-21T08:36:04;101244.88;;;24.53;60.83
250;BME280;109;19.806;-70.704;2023-04-21T08:38:50;101239.66;;;24.50;60.71
250;BME280;109;19.806;-70.704;2023-04-21T08:41:24;101241.25;;;24.54;61.01
250;BME280;109;19.806;-70.704;2023-04-21T08:43:51;101233.00;;;24.58;60.88
250;BME280;109;19.806;-70.704;2023-04-21T08:46:24;101236.09;;;24.49;61.11
250;BME280;109;19.806;-70.704;2023-04-21T08:48:52;101244.00;;;24.52;61.32
250;BME280;109;19.806;-70.704;2023-04-21T08:51:27;101248.84;;;24.44;61.48
250;BME280;109;19.806;-70.704;2023-04-21T08:53:54;101249.34;;;24.52;61.20
250;BME280;109;19.806;-70.704;2023-04-21T08:56:27;101249.06;;;24.58;61.40
250;BME280;109;19.806;-70.704;2023-04-21T08:58:53;101244.31;;;24.65;61.17
250;BME280;109;19.806;-70.704;2023-04-21T09:01:27;101248.41;;;24.53;61.23
250;BME280;109;19.806;-70.704;2023-04-21T09:03:53;101250.34;;;24.50;61.40
250;BME280;109;19.806;-70.704;2023-04-21T09:06:47;101245.44;;;24.59;61.17
250;BME280;109;19.806;-70.704;2023-04-21T09:09:13;101254.09;;;24.66;61.18
250;BME280;109;19.806;-70.704;2023-04-21T09:11:56;101254.97;;;24.66;61.18
250;BME280;109;19.806;-70.704;2023-04-21T09:14:42;101257.81;;;24.62;61.06
250;BME280;109;19.806;-70.704;2023-04-21T09:17:16;101262.13;;;24.66;61.27
250;BME280;109;19.806;-70.704;2023-04-21T09:19:43;101260.44;;;24.63;61.22
250;BME280;109;19.806;-70.704;2023-04-21T09:22:17;101265.34;;;24.54;61.10
250;BME280;109;19.806;-70.704;2023-04-21T09:24:48;101264.34;;;24.56;61.29
250;BME280;109;19.806;-70.704;2023-04-21T09:27:22;101264.06;;;24.62;61.18
250;BME280;109;19.806;-70.704;2023-04-21T09:29:48;101255.44;;;24.56;61.30
250;BME280;109;19.806;-70.704;2023-04-21T09:32:22;101270.75;;;24.52;61.51
250;BME280;109;19.806;-70.704;2023-04-21T09:34:48;101267.22;;;24.52;61.31
250;BME280;109;19.806;-70.704;2023-04-21T09:37:22;101271.50;;;24.56;61.62
250;BME280;109;19.806;-70.704;2023-04-21T09:40:12;101267.22;;;24.52;61.58
250;BME280;109;19.806;-70.704;2023-04-21T09:42:46;101267.91;;;24.57;61.60
250;BME280;109;19.806;-70.704;2023-04-21T09:45:12;101276.84;;;24.56;61.63
250;BME280;109;19.806;-70.704;2023-04-21T09:47:49;101278.66;;;24.55;61.70
250;BME280;109;19.806;-70.704;2023-04-21T09:50:28;101287.63;;;24.54;61.35
250;BME280;109;19.806;-70.704;2023-04-21T09:52:55;101294.72;;;24.55;61.61
250;BME280;109;19.806;-70.704;2023-04-21T09:55:29;101290.19;;;24.57;61.79
250;BME280;109;19.806;-70.704;2023-04-21T09:57:59;101298.28;;;24.56;61.65
250;BME280;109;19.806;-70.704;2023-04-21T10:00:33;101292.91;;;24.56;61.41
250;BME280;109;19.806;-70.704;2023-04-21T10:03:11;101280.41;;;24.56;61.46
250;BME280;109;19.806;-70.704;2023-04-21T10:05:39;101287.63;;;24.54;61.49
250;BME280;109;19.806;-70.704;2023-04-21T10:08:20;101289.84;;;24.45;61.64
250;BME280;109;19.806;-70.704;2023-04-21T10:10:53;101287.38;;;24.40;61.78
250;BME280;109;19.806;-70.704;2023-04-21T10:13:20;101293.47;;;24.44;61.84
250;BME280;109;19.806;-70.704;2023-04-21T10:16:07;101295.09;;;24.46;61.43
250;BME280;109;19.806;-70.704;2023-04-21T10:18:44;101294.34;;;24.44;61.66
250;BME280;109;19.806;-70.704;2023-04-21T10:21:18;101285.06;;;24.51;61.40
250;BME280;109;19.806;-70.704;2023-04-21T10:23:52;101287.19;;;24.45;61.24
250;BME280;109;19.806;-70.704;2023-04-21T10:26:33;101280.47;;;24.55;61.08
250;BME280;109;19.806;-70.704;2023-04-21T10:34:38;101281.19;;;24.58;61.15
250;BME280;109;19.806;-70.704;2023-04-21T10:37:13;101283.34;;;24.50;60.81
250;BME280;109;19.806;-70.704;2023-04-21T10:39:45;101286.31;;;24.44;61.01
250;BME280;109;19.806;-70.704;2023-04-21T10:42:27;101284.34;;;24.48;61.02
250;BME280;109;19.806;-70.704;2023-04-21T10:45:08;101286.91;;;24.30;61.15
250;BME280;109;19.806;-70.704;2023-04-21T10:50:22;101281.16;;;24.39;61.04
250;BME280;109;19.806;-70.704;2023-04-21T10:53:10;101278.91;;;24.49;60.62
250;BME280;109;19.806;-70.704;2023-04-21T10:55:47;101278.91;;;24.49;61.06
250;BME280;109;19.806;-70.704;2023-04-21T10:58:22;101287.88;;;24.48;60.65
250;BME280;109;19.806;-70.704;2023-04-21T11:00:54;101289.63;;;24.49;61.13
250;BME280;109;19.806;-70.704;2023-04-21T11:03:33;101288.56;;;24.53;60.52
250;BME280;109;19.806;-70.704;2023-04-21T11:06:15;101290.31;;;24.54;60.61
250;BME280;109;19.806;-70.704;2023-04-21T11:08:59;101289.50;;;24.52;60.32
250;BME280;109;19.806;-70.704;2023-04-21T11:11:32;101276.69;;;24.59;60.54
250;BME280;109;19.806;-70.704;2023-04-21T11:14:02;101287.63;;;24.74;60.39
250;BME280;109;19.806;-70.704;2023-04-21T11:16:35;101288.88;;;24.86;60.26
250;BME280;109;19.806;-70.704;2023-04-21T11:19:02;101298.31;;;24.95;59.95
250;BME280;109;19.806;-70.704;2023-04-21T11:21:36;101301.03;;;25.12;59.47
250;BME280;109;19.806;-70.704;2023-04-21T11:24:02;101299.53;;;25.25;59.21
250;BME280;109;19.806;-70.704;2023-04-21T11:26:36;101301.53;;;25.40;58.77
250;BME280;109;19.806;-70.704;2023-04-21T11:29:04;101315.41;;;25.67;58.79
250;BME280;109;19.806;-70.704;2023-04-21T11:31:40;101308.13;;;25.88;57.46
250;BME280;109;19.806;-70.704;2023-04-21T11:34:30;101309.50;;;25.97;57.38
250;BME280;109;19.806;-70.704;2023-04-21T11:37:06;101305.41;;;25.71;57.12
250;BME280;109;19.806;-70.704;2023-04-21T11:39:33;101295.56;;;25.53;57.34
250;BME280;109;19.806;-70.704;2023-04-21T11:42:06;101293.53;;;25.58;57.73
250;BME280;109;19.806;-70.704;2023-04-21T11:47:24;101288.81;;;25.63;57.39
250;BME280;109;19.806;-70.704;2023-04-21T11:49:59;101292.34;;;25.63;57.51
250;BME280;109;19.806;-70.704;2023-04-21T11:52:28;101291.47;;;25.63;57.54
250;BME280;109;19.806;-70.704;2023-04-21T11:55:10;101288.19;;;25.75;57.65
250;BME280;109;19.806;-70.704;2023-04-21T11:57:43;101292.03;;;25.88;56.48
250;BME280;109;19.806;-70.704;2023-04-21T12:00:11;101297.38;;;26.24;56.35
250;BME280;109;19.806;-70.704;2023-04-21T12:02:55;101302.19;;;26.00;55.86
250;BME280;109;19.806;-70.704;2023-04-21T12:05:35;101299.94;;;25.91;55.91
250;BME280;109;19.806;-70.704;2023-04-21T12:08:17;101303.72;;;26.04;55.72
250;BME280;109;19.806;-70.704;2023-04-21T12:10:51;101298.31;;;26.40;55.96
250;BME280;109;19.806;-70.704;2023-04-21T12:13:26;101292.69;;;26.62;55.22
250;BME280;109;19.806;-70.704;2023-04-21T12:16:02;101304.88;;;27.02;55.02
250;BME280;109;19.806;-70.704;2023-04-21T12:18:30;101305.75;;;27.34;53.55
250;BME280;109;19.806;-70.704;2023-04-21T12:21:05;101306.97;;;27.13;53.54
250;BME280;109;19.806;-70.704;2023-04-21T12:23:31;101307.91;;;27.12;54.39
250;BME280;109;19.806;-70.704;2023-04-21T12:26:12;101315.56;;;27.35;53.45
250;BME280;109;19.806;-70.704;2023-04-21T12:28:46;101310.34;;;27.32;53.20
250;BME280;109;19.806;-70.704;2023-04-21T12:31:12;101305.09;;;27.46;53.15
250;BME280;109;19.806;-70.704;2023-04-21T12:33:45;101300.94;;;27.57;52.87
250;BME280;109;19.806;-70.704;2023-04-21T12:36:31;101302.66;;;27.58;52.21
250;BME280;109;19.806;-70.704;2023-04-21T12:39:05;101312.63;;;27.71;52.87
250;BME280;109;19.806;-70.704;2023-04-21T12:41:32;101309.31;;;27.98;51.62
250;BME280;109;19.806;-70.704;2023-04-21T12:44:06;101306.84;;;28.39;51.19
250;BME280;109;19.806;-70.704;2023-04-21T12:46:32;101309.25;;;28.43;51.25
250;BME280;109;19.806;-70.704;2023-04-21T12:49:06;101302.63;;;27.89;51.61
250;BME280;109;19.806;-70.704;2023-04-21T12:51:34;101299.72;;;27.62;51.96
250;BME280;109;19.806;-70.704;2023-04-21T12:54:08;101303.34;;;27.45;52.10
250;BME280;109;19.806;-70.704;2023-04-21T12:56:34;101304.09;;;27.32;52.89
250;BME280;109;19.806;-70.704;2023-04-21T12:59:08;101303.44;;;27.44;52.11
250;BME280;109;19.806;-70.704;2023-04-21T13:01:39;101301.16;;;27.36;53.01
250;BME280;109;19.806;-70.704;2023-04-21T13:04:13;101300.41;;;27.50;52.66
250;BME280;109;19.806;-70.704;2023-04-21T13:06:39;101297.69;;;27.34;52.86
250;BME280;109;19.806;-70.704;2023-04-21T13:09:20;101296.72;;;27.19;53.40
250;BME280;109;19.806;-70.704;2023-04-21T13:11:54;101303.41;;;27.12;53.55
250;BME280;109;19.806;-70.704;2023-04-21T13:14:21;101303.22;;;27.00;53.39
250;BME280;109;19.806;-70.704;2023-04-21T13:16:54;101300.09;;;26.92;52.59
250;BME280;109;19.806;-70.704;2023-04-21T13:19:20;101310.72;;;26.93;52.47
250;BME280;109;19.806;-70.704;2023-04-21T13:21:54;101308.63;;;27.15;53.09
250;BME280;109;19.806;-70.704;2023-04-21T13:24:21;101300.03;;;27.25;52.77
250;BME280;109;19.806;-70.704;2023-04-21T13:27:01;101312.59;;;27.24;52.34
250;BME280;109;19.806;-70.704;2023-04-21T13:29:35;101298.75;;;27.16;52.57
250;BME280;109;19.806;-70.704;2023-04-21T13:32:03;101305.84;;;27.17;53.51
250;BME280;109;19.806;-70.704;2023-04-21T13:34:37;101295.09;;;27.17;53.13
250;BME280;109;19.806;-70.704;2023-04-21T13:37:17;101301.84;;;27.24;53.12
250;BME280;109;19.806;-70.704;2023-04-21T13:39:44;101302.53;;;27.12;53.27
250;BME280;109;19.806;-70.704;2023-04-21T13:42:10;101311.69;;;26.92;53.02
250;BME280;109;19.806;-70.704;2023-04-21T13:44:37;101307.50;;;26.86;53.36